createdAt,value
2019-01-26T00:00:52.376Z,51.37
2019-01-26T00:03:23.134Z,50.90
2019-01-26T00:05:54.083Z,48.67
2019-01-26T00:08:26.254Z,50.23
2019-01-26T00:10:57.834Z,47.73
2019-01-26T00:13:29.898Z,46.33
2019-01-26T00:16:00.813Z,46.40
2019-01-26T00:18:31.423Z,49.97
2019-01-26T00:21:02.032Z,48.97
2019-01-26T00:23:32.718Z,47.80
2019-01-26T00:26:03.257Z,47.03
2019-01-26T00:28:33.934Z,44.40
2019-01-26T00:31:05.513Z,46.00
2019-01-26T00:33:37.020Z,42.43
2019-01-26T00:36:08.210Z,43.93
2019-01-26T00:38:39.297Z,44.23
2019-01-26T00:41:10.078Z,43.63
2019-01-26T00:43:41.229Z,40.63
2019-01-26T00:46:12.018Z,38.60
2019-01-26T00:48:43.169Z,38.57
2019-01-26T00:51:17.245Z,39.00
2019-01-26T00:53:46.618Z,35.37
2019-01-26T00:56:18.331Z,33.87
2019-01-26T00:58:49.839Z,35.17
2019-01-26T01:01:21.838Z,32.63
2019-01-26T01:03:52.980Z,33.53
2019-01-26T01:06:26.016Z,32.10
2019-01-26T01:08:56.069Z,33.07
2019-01-26T01:11:26.603Z,32.60
2019-01-26T01:13:58.297Z,31.80
2019-01-26T01:16:35.834Z,32.10
2019-01-26T01:19:02.969Z,33.07
2019-01-26T01:21:33.667Z,35.83
2019-01-26T01:24:04.467Z,32.30
2019-01-26T01:26:35.179Z,31.83
2019-01-26T01:29:05.919Z,33.47
2019-01-26T01:31:36.673Z,32.13
2019-01-26T01:34:07.318Z,31.77
2019-01-26T01:36:37.948Z,34.07
2019-01-26T01:39:11.297Z,30.93
2019-01-26T01:41:42.919Z,32.53
2019-01-26T01:44:14.743Z,33.47
2019-01-26T01:46:45.398Z,35.57
2019-01-26T01:49:16.040Z,33.77
2019-01-26T01:51:46.723Z,32.93
2019-01-26T01:54:17.285Z,34.63
2019-01-26T01:56:47.827Z,35.70
2019-01-26T01:59:18.414Z,32.60
2019-01-26T02:01:48.939Z,34.23
2019-01-26T02:04:19.508Z,35.40
2019-01-26T02:06:50.129Z,33.77
2019-01-26T02:09:20.812Z,32.30
2019-01-26T02:11:51.539Z,33.57
2019-01-26T02:14:22.138Z,34.03
2019-01-26T02:16:52.753Z,32.43
2019-01-26T02:19:23.377Z,33.23
2019-01-26T02:21:54.005Z,34.83
2019-01-26T02:24:24.650Z,33.23
2019-01-26T02:26:55.330Z,33.13
2019-01-26T02:29:25.878Z,31.97
2019-01-26T02:31:56.534Z,32.27
2019-01-26T02:34:26.979Z,27.50
2019-01-26T02:36:57.729Z,29.13
2019-01-26T02:39:28.227Z,29.97
2019-01-26T02:41:58.803Z,26.67
2019-01-26T02:44:29.361Z,28.43
2019-01-26T02:46:59.980Z,29.40
2019-01-26T02:49:30.527Z,28.77
2019-01-26T02:52:01.294Z,29.10
2019-01-26T02:54:31.883Z,30.80
2019-01-26T02:57:02.478Z,29.87
2019-01-26T02:59:33.174Z,27.27
2019-01-26T03:02:03.901Z,28.20
2019-01-26T03:04:34.717Z,32.93
2019-01-26T03:07:05.687Z,31.60
2019-01-26T03:09:36.387Z,30.20
2019-01-26T03:12:08.459Z,31.93
2019-01-26T03:14:39.003Z,33.00
2019-01-26T03:17:09.649Z,33.80
2019-01-26T03:19:40.539Z,28.80
2019-01-26T03:22:11.944Z,29.53
2019-01-26T03:24:42.609Z,31.40
2019-01-26T03:27:13.340Z,28.77
2019-01-26T03:29:43.986Z,30.93
2019-01-26T03:32:14.738Z,30.30
2019-01-26T03:34:45.362Z,29.83
2019-01-26T03:37:16.074Z,30.83
2019-01-26T03:39:46.684Z,30.97
2019-01-26T03:42:17.313Z,30.43
2019-01-26T03:44:47.966Z,29.13
2019-01-26T03:47:18.510Z,29.80
2019-01-26T03:49:49.224Z,26.93
2019-01-26T03:52:19.930Z,27.97
2019-01-26T03:54:50.668Z,27.10
2019-01-26T03:57:21.340Z,26.33
2019-01-26T03:59:52.098Z,27.73
2019-01-26T04:02:23.949Z,25.30
2019-01-26T04:04:54.680Z,25.37
2019-01-26T04:07:25.419Z,25.60
2019-01-26T04:09:56.098Z,28.17
2019-01-26T04:12:26.904Z,25.27
2019-01-26T04:14:57.574Z,26.23
2019-01-26T04:17:28.424Z,25.37
2019-01-26T04:19:59.080Z,26.83
2019-01-26T04:22:29.784Z,24.67
2019-01-26T04:25:00.440Z,26.47
2019-01-26T04:27:31.129Z,24.53
2019-01-26T04:30:01.870Z,26.30
2019-01-26T04:32:32.514Z,23.13
2019-01-26T04:35:03.359Z,28.60
2019-01-26T04:37:34.052Z,26.87
2019-01-26T04:40:05.831Z,30.03
2019-01-26T04:42:36.517Z,30.57
2019-01-26T04:45:10.319Z,31.30
2019-01-26T04:47:41.045Z,30.10
2019-01-26T04:50:14.250Z,27.20
2019-01-26T04:52:45.043Z,21.13
2019-01-26T04:55:18.697Z,24.63
2019-01-26T04:57:49.769Z,24.07
2019-01-26T05:00:24.144Z,23.20
2019-01-26T05:02:54.864Z,23.93
2019-01-26T05:05:25.709Z,23.67
2019-01-26T05:07:56.394Z,23.80
2019-01-26T05:10:27.020Z,23.17
2019-01-26T05:12:57.768Z,23.40
2019-01-26T05:15:28.419Z,22.43
2019-01-26T05:17:59.113Z,21.83
2019-01-26T05:20:29.909Z,24.87
2019-01-26T05:23:00.605Z,25.50
2019-01-26T05:25:31.221Z,28.30
2019-01-26T05:28:01.830Z,22.93
2019-01-26T05:30:32.388Z,27.23
2019-01-26T05:33:03.078Z,27.93
2019-01-26T05:35:33.626Z,27.07
2019-01-26T05:38:04.361Z,27.63
2019-01-26T05:40:35.049Z,28.47
2019-01-26T05:43:06.249Z,23.77
2019-01-26T05:45:36.932Z,25.10
2019-01-26T05:48:07.994Z,28.03
2019-01-26T05:50:38.719Z,28.30
2019-01-26T05:53:09.324Z,28.30
2019-01-26T05:55:39.921Z,27.53
2019-01-26T05:58:10.695Z,27.43
2019-01-26T06:00:41.731Z,28.13
2019-01-26T06:03:12.466Z,28.33
2019-01-26T06:05:43.060Z,27.30
2019-01-26T06:08:15.470Z,26.83
2019-01-26T06:10:46.070Z,26.77
2019-01-26T06:13:16.691Z,28.70
2019-01-26T06:15:47.421Z,26.00
2019-01-26T06:18:18.214Z,26.77
2019-01-26T06:20:48.880Z,27.47
2019-01-26T06:23:19.493Z,27.80
2019-01-26T06:25:50.120Z,29.07
2019-01-26T06:28:20.854Z,28.77
2019-01-26T06:30:51.559Z,25.67
2019-01-26T06:33:22.345Z,26.10
2019-01-26T06:35:56.971Z,24.93
2019-01-26T06:38:28.129Z,24.93
2019-01-26T06:40:59.057Z,26.07
2019-01-26T06:43:29.769Z,25.77
2019-01-26T06:46:00.321Z,25.30
2019-01-26T06:48:30.895Z,24.37
2019-01-26T06:51:01.693Z,26.63
2019-01-26T06:53:32.363Z,25.63
2019-01-26T06:56:03.120Z,27.10
2019-01-26T06:58:33.895Z,26.87
2019-01-26T07:01:04.635Z,26.63
2019-01-26T07:03:35.937Z,24.93
2019-01-26T07:06:17.220Z,25.77
2019-01-26T07:08:47.922Z,25.33
2019-01-26T07:11:40.005Z,25.20
2019-01-26T07:14:11.024Z,26.13
2019-01-26T07:16:41.799Z,28.30
2019-01-26T07:19:12.391Z,25.60
2019-01-26T07:21:43.129Z,26.13
2019-01-26T07:24:13.719Z,27.00
2019-01-26T07:26:44.479Z,27.33
2019-01-26T07:29:15.219Z,27.53
2019-01-26T07:31:45.921Z,26.63
2019-01-26T07:34:16.998Z,24.70
2019-01-26T07:36:47.693Z,26.23
2019-01-26T07:39:18.379Z,27.90
2019-01-26T07:41:49.096Z,28.67
2019-01-26T07:44:19.759Z,26.70
2019-01-26T07:46:50.697Z,28.87
2019-01-26T07:49:22.145Z,29.70
2019-01-26T07:51:52.959Z,27.83
2019-01-26T07:54:23.814Z,27.40
2019-01-26T07:56:54.695Z,29.70
2019-01-26T07:59:25.368Z,27.97
2019-01-26T08:01:56.049Z,27.40
2019-01-26T08:04:26.715Z,26.70
2019-01-26T08:06:57.288Z,27.77
2019-01-26T08:09:28.136Z,28.13
2019-01-26T08:11:58.759Z,27.40
2019-01-26T08:14:29.304Z,25.67
2019-01-26T08:16:59.969Z,28.20
2019-01-26T08:19:30.625Z,26.80
2019-01-26T08:22:01.289Z,26.60
2019-01-26T08:24:31.921Z,38.10
2019-01-26T08:27:02.655Z,28.27
2019-01-26T08:29:33.273Z,27.03
2019-01-26T08:32:03.945Z,28.23
2019-01-26T08:34:34.628Z,31.37
2019-01-26T08:37:05.794Z,28.63
2019-01-26T08:39:36.418Z,27.93
2019-01-26T08:42:07.368Z,29.07
2019-01-26T08:44:38.069Z,28.33
2019-01-26T08:47:08.674Z,37.07
2019-01-26T08:49:39.348Z,30.63
2019-01-26T08:52:10.100Z,27.70
2019-01-26T08:54:40.584Z,26.97
2019-01-26T08:57:11.373Z,27.73
2019-01-26T08:59:42.119Z,29.67
2019-01-26T09:02:30.267Z,29.90
2019-01-26T09:05:01.228Z,27.60
2019-01-26T09:07:31.905Z,29.70
2019-01-26T09:10:02.871Z,32.00
2019-01-26T09:12:33.508Z,30.00
2019-01-26T09:15:04.375Z,28.53
2019-01-26T09:17:35.148Z,30.27
2019-01-26T09:20:11.727Z,28.50
2019-01-26T09:22:42.481Z,27.90
2019-01-26T09:25:13.278Z,30.73
2019-01-26T09:27:44.349Z,29.77
2019-01-26T09:30:15.878Z,30.13
2019-01-26T09:32:46.568Z,31.17
2019-01-26T09:35:17.809Z,30.83
2019-01-26T09:37:51.769Z,30.73
2019-01-26T09:40:22.814Z,29.23
2019-01-26T09:42:53.704Z,28.33
2019-01-26T09:45:24.540Z,29.40
2019-01-26T09:47:55.899Z,29.43
2019-01-26T09:50:26.664Z,27.67
2019-01-26T09:52:57.620Z,30.07
2019-01-26T09:55:28.235Z,29.43
2019-01-26T09:57:58.892Z,30.03
2019-01-26T10:00:29.719Z,30.90
2019-01-26T10:03:00.428Z,31.23
2019-01-26T10:05:31.550Z,31.77
2019-01-26T10:08:02.214Z,26.07
2019-01-26T10:10:33.190Z,29.80
2019-01-26T10:13:03.984Z,29.70
2019-01-26T10:15:34.840Z,31.33
2019-01-26T10:18:06.240Z,31.70
2019-01-26T10:20:38.585Z,31.60
2019-01-26T10:23:10.633Z,32.07
2019-01-26T10:25:48.413Z,33.47
2019-01-26T10:28:13.795Z,29.00
2019-01-26T10:30:48.256Z,30.93
2019-01-26T10:33:19.001Z,30.73
2019-01-26T10:36:08.521Z,29.93
2019-01-26T10:38:44.204Z,32.23
2019-01-26T10:41:26.701Z,33.80
2019-01-26T10:43:57.493Z,34.23
2019-01-26T10:46:28.337Z,33.33
2019-01-26T10:49:00.781Z,34.87
2019-01-26T10:51:31.409Z,31.47
2019-01-26T10:54:02.295Z,32.63
2019-01-26T10:56:32.859Z,31.70
2019-01-26T10:59:03.710Z,32.97
2019-01-26T11:01:34.559Z,33.90
2019-01-26T11:04:05.324Z,34.10
2019-01-26T11:06:35.936Z,34.60
2019-01-26T11:09:11.608Z,36.87
2019-01-26T11:11:42.610Z,34.83
2019-01-26T11:14:13.387Z,34.40
2019-01-26T11:16:44.098Z,35.37
2019-01-26T11:19:14.822Z,37.10
2019-01-26T11:21:46.214Z,37.40
2019-01-26T11:24:16.894Z,36.77
2019-01-26T11:26:49.471Z,38.13
2019-01-26T11:29:20.070Z,39.33
2019-01-26T11:31:50.828Z,39.43
2019-01-26T11:34:21.594Z,37.57
2019-01-26T11:36:52.365Z,35.50
2019-01-26T11:39:23.146Z,37.80
2019-01-26T11:41:53.949Z,38.60
2019-01-26T11:44:25.358Z,38.23
2019-01-26T11:47:00.114Z,37.40
2019-01-26T11:49:30.885Z,37.20
2019-01-26T11:52:09.825Z,34.53
2019-01-26T11:55:01.338Z,35.20
2019-01-26T11:57:39.449Z,35.37
2019-01-26T12:00:38.505Z,35.60
2019-01-26T12:03:28.119Z,36.43
2019-01-26T12:06:03.810Z,44.00
2019-01-26T12:08:34.404Z,47.30
2019-01-26T12:11:05.145Z,40.43
2019-01-26T12:13:35.809Z,45.63
2019-01-26T12:16:06.602Z,40.83
2019-01-26T12:18:37.294Z,47.07
2019-01-26T12:21:07.964Z,48.30
2019-01-26T12:23:38.618Z,54.43
2019-01-26T12:26:09.388Z,54.07
2019-01-26T12:28:40.039Z,44.40
2019-01-26T12:31:10.594Z,43.40
2019-01-26T12:33:41.484Z,45.43
2019-01-26T12:36:12.469Z,45.33
2019-01-26T12:38:43.098Z,49.13
2019-01-26T12:41:13.889Z,46.70
2019-01-26T12:43:44.504Z,41.40
2019-01-26T12:46:15.060Z,48.10
2019-01-26T12:48:45.732Z,45.13
2019-01-26T12:51:16.257Z,44.30
2019-01-26T12:53:46.879Z,42.73
2019-01-26T12:56:17.599Z,44.33
2019-01-26T12:58:48.386Z,50.20
2019-01-26T13:01:19.004Z,43.30
2019-01-26T13:03:49.659Z,40.70
2019-01-26T13:06:20.450Z,44.00
2019-01-26T13:08:51.114Z,52.67
2019-01-26T13:11:27.028Z,38.20
2019-01-26T13:13:58.038Z,38.13
2019-01-26T13:16:28.785Z,36.40
2019-01-26T13:18:59.515Z,37.70
2019-01-26T13:21:30.230Z,36.87
2019-01-26T13:24:00.953Z,38.47
2019-01-26T13:26:31.939Z,38.80
2019-01-26T13:29:02.480Z,43.43
2019-01-26T13:31:34.190Z,39.57
2019-01-26T13:34:05.480Z,37.40
2019-01-26T13:36:36.188Z,38.73
2019-01-26T13:39:10.559Z,43.30
2019-01-26T13:41:41.286Z,45.10
2019-01-26T13:44:12.080Z,47.13
2019-01-26T13:46:42.839Z,47.20
2019-01-26T13:49:13.422Z,47.63
2019-01-26T13:51:44.106Z,48.07
2019-01-26T13:54:14.830Z,48.23
2019-01-26T13:56:45.535Z,45.73
2019-01-26T13:59:16.056Z,46.33
2019-01-26T14:01:46.725Z,45.60
2019-01-26T14:04:17.438Z,47.10
2019-01-26T14:06:48.259Z,50.03
2019-01-26T14:09:19.054Z,48.33
2019-01-26T14:11:49.930Z,50.73
2019-01-26T14:14:20.831Z,53.70
2019-01-26T14:16:51.590Z,52.40
2019-01-26T14:19:22.375Z,52.37
2019-01-26T14:21:52.815Z,50.20
2019-01-26T14:24:23.460Z,49.50
2019-01-26T14:26:54.158Z,49.33
2019-01-26T14:29:24.765Z,47.77
2019-01-26T14:31:55.317Z,47.03
2019-01-26T14:34:25.879Z,49.53
2019-01-26T14:36:56.500Z,48.37
2019-01-26T14:39:27.286Z,48.90
2019-01-26T14:41:57.957Z,46.87
2019-01-26T14:44:29.410Z,46.07
2019-01-26T14:47:00.100Z,46.40
2019-01-26T14:49:30.806Z,54.20
2019-01-26T14:52:01.498Z,53.77
2019-01-26T14:54:32.069Z,52.23
2019-01-26T14:57:03.105Z,52.80
2019-01-26T14:59:33.694Z,52.50
2019-01-26T15:02:04.529Z,53.03
2019-01-26T15:04:35.616Z,52.73
2019-01-26T15:07:07.029Z,50.90
2019-01-26T15:09:37.755Z,52.20
2019-01-26T15:12:08.504Z,52.50
2019-01-26T15:14:39.219Z,49.40
2019-01-26T15:17:09.925Z,50.47
2019-01-26T15:19:40.515Z,50.43
2019-01-26T15:22:11.270Z,52.87
2019-01-26T15:24:41.920Z,52.07
2019-01-26T15:27:12.540Z,52.03
2019-01-26T15:29:43.195Z,54.40
2019-01-26T15:32:16.208Z,55.97
2019-01-26T15:34:46.923Z,57.73
2019-01-26T15:37:17.619Z,58.47
2019-01-26T15:39:48.731Z,59.00
2019-01-26T15:42:19.453Z,59.50
2019-01-26T15:44:50.054Z,62.53
2019-01-26T15:47:20.539Z,55.27
2019-01-26T15:49:51.085Z,55.73
2019-01-26T15:52:23.290Z,56.23
2019-01-26T15:54:53.945Z,58.03
2019-01-26T15:57:24.586Z,58.70
2019-01-26T15:59:55.578Z,57.77
2019-01-26T16:02:26.513Z,57.13
2019-01-26T16:04:57.177Z,57.73
2019-01-26T16:07:27.975Z,55.87
2019-01-26T16:09:58.519Z,61.13
2019-01-26T16:12:29.135Z,60.43
2019-01-26T16:14:59.690Z,60.93
2019-01-26T16:17:30.359Z,56.50
2019-01-26T16:20:05.735Z,58.20
2019-01-26T16:22:36.239Z,56.13
2019-01-26T16:25:08.905Z,59.20
2019-01-26T16:27:39.625Z,58.03
2019-01-26T16:30:16.764Z,61.80
2019-01-26T16:32:47.617Z,69.83
2019-01-26T16:35:18.328Z,74.70
2019-01-26T16:37:49.589Z,74.47
2019-01-26T16:40:29.391Z,71.43
2019-01-26T16:43:00.032Z,79.47
2019-01-26T16:45:33.861Z,79.53
2019-01-26T16:48:05.820Z,82.17
2019-01-26T16:50:36.579Z,83.20
2019-01-26T16:53:07.248Z,76.73
2019-01-26T16:55:38.185Z,75.30
2019-01-26T16:58:08.989Z,67.57
2019-01-26T17:00:51.966Z,70.90
2019-01-26T17:03:24.228Z,79.73
2019-01-26T17:05:56.088Z,85.00
2019-01-26T17:08:26.869Z,89.80
2019-01-26T17:11:00.975Z,90.60
2019-01-26T17:13:31.820Z,87.80
2019-01-26T17:16:03.849Z,89.57
2019-01-26T17:18:36.738Z,87.67
2019-01-26T17:21:07.509Z,91.30
2019-01-26T17:23:38.398Z,96.57
2019-01-26T17:26:09.204Z,96.77
2019-01-26T17:28:40.854Z,99.33
2019-01-26T17:31:11.629Z,101.37
2019-01-26T17:33:42.349Z,105.00
2019-01-26T17:36:13.025Z,95.67
2019-01-26T17:38:45.064Z,94.00
2019-01-26T17:41:15.864Z,93.00
2019-01-26T17:43:50.149Z,97.40
2019-01-26T17:46:23.373Z,87.70
2019-01-26T17:48:54.394Z,81.83
2019-01-26T17:51:26.244Z,77.77
2019-01-26T17:53:57.814Z,76.90
2019-01-26T17:56:28.493Z,76.40
2019-01-26T17:58:59.319Z,69.87
2019-01-26T18:01:34.334Z,76.73
2019-01-26T18:04:10.124Z,75.03
2019-01-26T18:06:40.864Z,78.70
2019-01-26T18:09:11.818Z,80.43
2019-01-26T18:11:45.113Z,82.07
2019-01-26T18:14:16.365Z,91.40
2019-01-26T18:16:47.119Z,92.50
2019-01-26T18:19:20.275Z,92.77
2019-01-26T18:21:51.165Z,105.83
2019-01-26T18:24:46.302Z,112.17
2019-01-26T18:27:18.079Z,105.60
2019-01-26T18:29:51.365Z,105.90
2019-01-26T18:32:24.990Z,100.77
2019-01-26T18:34:59.895Z,96.03
2019-01-26T18:37:33.460Z,91.30
2019-01-26T18:40:06.930Z,86.40
2019-01-26T18:42:37.707Z,90.70
2019-01-26T18:45:11.808Z,90.90
2019-01-26T18:47:42.645Z,87.20
2019-01-26T18:50:24.603Z,92.77
2019-01-26T18:52:55.484Z,88.03
2019-01-26T18:55:29.246Z,89.10
2019-01-26T18:58:00.034Z,99.70
2019-01-26T19:00:39.988Z,103.77
2019-01-26T19:04:00.275Z,104.20
2019-01-26T19:06:31.507Z,100.40
2019-01-26T19:09:02.104Z,111.00
2019-01-26T19:11:36.863Z,110.40
2019-01-26T19:14:12.188Z,112.30
2019-01-26T19:16:45.309Z,98.90
2019-01-26T19:19:20.984Z,94.60
2019-01-26T19:21:54.604Z,86.20
2019-01-26T19:24:29.589Z,86.53
2019-01-26T19:27:00.870Z,86.80
2019-01-26T19:29:32.531Z,82.47
2019-01-26T19:32:05.428Z,83.90
2019-01-26T19:34:38.895Z,81.20
2019-01-26T19:37:15.738Z,84.37
2019-01-26T19:39:48.265Z,78.87
2019-01-26T19:42:27.925Z,74.00
2019-01-26T19:45:01.125Z,77.23
2019-01-26T19:47:34.044Z,71.43
2019-01-26T19:50:06.968Z,66.37
2019-01-26T19:52:40.105Z,66.43
2019-01-26T19:55:23.151Z,74.17
2019-01-26T19:58:00.414Z,75.77
2019-01-26T20:00:34.314Z,79.33
2019-01-26T20:03:06.138Z,78.93
2019-01-26T20:05:37.254Z,76.33
2019-01-26T20:08:10.204Z,79.93
2019-01-26T20:10:48.673Z,79.83
2019-01-26T20:13:20.860Z,92.03
2019-01-26T20:15:53.858Z,90.20
2019-01-26T20:18:34.265Z,75.83
2019-01-26T20:21:08.951Z,75.00
2019-01-26T20:23:49.735Z,74.67
2019-01-26T20:26:22.408Z,77.90
2019-01-26T20:28:56.898Z,78.00
2019-01-26T20:31:27.712Z,75.10
2019-01-26T20:33:59.639Z,75.80
2019-01-26T20:36:40.705Z,83.30
2019-01-26T20:39:11.633Z,98.97
2019-01-26T20:41:43.804Z,74.60
2019-01-26T20:44:17.789Z,69.37
2019-01-26T20:46:55.606Z,68.43
2019-01-26T20:49:27.580Z,68.47
2019-01-26T20:51:59.739Z,69.43
2019-01-26T20:54:30.628Z,63.03
2019-01-26T20:57:06.375Z,63.90
2019-01-26T20:59:41.155Z,62.20
2019-01-26T21:02:15.640Z,63.47
2019-01-26T21:04:51.348Z,71.90
2019-01-26T21:07:23.594Z,66.93
2019-01-26T21:09:54.900Z,116.63
2019-01-26T21:12:32.609Z,103.13
2019-01-26T21:15:08.756Z,63.97
2019-01-26T21:17:44.484Z,70.93
2019-01-26T21:20:21.754Z,67.70
2019-01-26T21:22:58.381Z,64.53
2019-01-26T21:25:32.980Z,64.03
2019-01-26T21:28:03.933Z,65.83
2019-01-26T21:30:34.574Z,82.00
2019-01-26T21:33:08.502Z,61.83
2019-01-26T21:35:41.569Z,61.70
2019-01-26T21:38:12.594Z,61.83
2019-01-26T21:40:48.743Z,66.30
2019-01-26T21:43:26.047Z,61.07
2019-01-26T21:45:57.995Z,57.43
2019-01-26T21:48:31.825Z,58.27
2019-01-26T21:51:05.020Z,56.40
2019-01-26T21:53:39.061Z,56.40
2019-01-26T21:56:09.905Z,99.57
2019-01-26T21:58:45.749Z,73.83
2019-01-26T22:01:20.089Z,88.90
2019-01-26T22:03:50.805Z,55.50
2019-01-26T22:06:21.510Z,112.90
2019-01-26T22:08:55.504Z,111.13
2019-01-26T22:11:26.033Z,52.03
2019-01-26T22:13:56.699Z,52.77
2019-01-26T22:16:28.754Z,119.57
2019-01-26T22:18:59.579Z,110.60
2019-01-26T22:21:30.404Z,238.57
2019-01-26T22:24:00.954Z,58.57
2019-01-26T22:26:31.841Z,91.40
2019-01-26T22:29:02.757Z,103.57
2019-01-26T22:31:33.618Z,56.43
2019-01-26T22:34:07.148Z,66.90
2019-01-26T22:36:40.771Z,62.97
2019-01-26T22:39:11.646Z,55.10
2019-01-26T22:41:42.326Z,85.50
2019-01-26T22:44:12.939Z,83.83
2019-01-26T22:46:43.810Z,61.50
2019-01-26T22:49:14.549Z,65.47
2019-01-26T22:51:44.974Z,93.13
2019-01-26T22:54:15.821Z,79.20
2019-01-26T22:56:46.449Z,98.07
2019-01-26T22:59:17.132Z,91.33
2019-01-26T23:01:48.611Z,73.00
2019-01-26T23:04:50.415Z,88.70
2019-01-26T23:07:44.692Z,125.23
2019-01-26T23:10:57.356Z,69.80
2019-01-26T23:13:52.529Z,96.93
2019-01-26T23:17:14.392Z,70.70
2019-01-26T23:20:12.381Z,82.33
2019-01-26T23:23:27.821Z,90.10
2019-01-26T23:26:47.392Z,63.10
2019-01-26T23:29:50.195Z,81.87
2019-01-26T23:32:20.969Z,65.93
2019-01-26T23:34:51.746Z,73.90
2019-01-26T23:37:22.549Z,70.93
2019-01-26T23:39:53.265Z,95.50
2019-01-26T23:42:24.224Z,68.33
2019-01-26T23:44:55.185Z,90.93
2019-01-26T23:47:25.910Z,76.73
2019-01-26T23:49:56.731Z,69.43
2019-01-26T23:52:27.622Z,65.00
2019-01-26T23:54:58.279Z,67.43
2019-01-26T23:57:29.684Z,70.23
